Time;durP1;ratioP1;P1;durP2;ratioP2;P2;SDS_P1;SDS_P2;PMS_P1;PMS_P2;Temp;Humidity;BMP_temperature;BMP_pressure;BME280_temperature;BME280_humidity;BME280_pressure;Samples;Min_cycle;Max_cycle;Signal;HPM_P1;HPM_P2
2022/11/26 00:02:20;;;;;;;48.28;23.02;;;;;;;0.79;100.00;98122.53;4896614;29;20031;-78
2022/11/26 00:04:46;;;;;;;46.47;19.35;;;;;;;0.77;100.00;98124.34;4904668;29;20102;-77
2022/11/26 00:07:13;;;;;;;38.88;17.85;;;;;;;0.76;100.00;98131.38;4910268;29;20560;-77
2022/11/26 00:09:39;;;;;;;43.42;18.10;;;;;;;0.67;100.00;98127.97;4909114;29;20036;-77
2022/11/26 00:12:27;;;;;;;46.65;19.02;;;;;;;0.67;100.00;98126.22;4914264;29;20038;-76
2022/11/26 00:14:53;;;;;;;35.10;18.20;;;;;;;0.59;100.00;98114.91;4867191;29;20497;-76
2022/11/26 00:17:19;;;;;;;42.13;20.35;;;;;;;0.65;100.00;98141.16;4867109;29;20092;-77
2022/11/26 00:19:45;;;;;;;49.03;20.98;;;;;;;0.59;100.00;98137.72;4885872;29;20119;-76
2022/11/26 00:22:26;;;;;;;42.13;19.77;;;;;;;0.58;100.00;98130.75;4900028;29;20027;-77
2022/11/26 00:24:52;;;;;;;49.00;21.17;;;;;;;0.49;100.00;98121.22;4898158;29;20032;-78
2022/11/26 00:27:18;;;;;;;43.25;18.80;;;;;;;0.48;100.00;98124.72;4905821;29;20111;-77
2022/11/26 00:29:44;;;;;;;41.85;19.50;;;;;;;0.37;100.00;98119.59;4888360;29;20029;-77
2022/11/26 00:32:21;;;;;;;36.38;18.02;;;;;;;0.36;100.00;98120.50;4898994;29;20032;-77
2022/11/26 00:34:47;;;;;;;46.10;18.63;;;;;;;0.46;100.00;98137.03;4904475;29;20016;-77
2022/11/26 00:37:24;;;;;;;40.13;18.83;;;;;;;0.38;100.00;98125.72;4898703;29;20034;-77
2022/11/26 00:39:49;;;;;;;42.95;18.13;;;;;;;0.36;100.00;98130.16;4917784;29;20035;-75
2022/11/26 00:42:16;;;;;;;33.20;17.20;;;;;;;0.36;100.00;98117.88;4919876;29;20039;-76
2022/11/26 00:44:41;;;;;;;34.40;15.68;;;;;;;0.28;100.00;98113.56;4912010;29;20039;-77
2022/11/26 00:47:08;;;;;;;40.67;17.00;;;;;;;0.26;100.00;98113.59;4919905;29;20027;-75
2022/11/26 00:49:34;;;;;;;45.78;19.95;;;;;;;0.28;100.00;98124.09;4903823;29;20036;-76
2022/11/26 00:51:59;;;;;;;43.60;16.23;;;;;;;0.23;100.00;98115.41;4903897;29;20397;-76
2022/11/26 00:54:25;;;;;;;29.42;14.68;;;;;;;0.19;100.00;98122.44;4903656;29;20031;-75
2022/11/26 00:56:51;;;;;;;28.83;12.63;;;;;;;0.19;100.00;98122.44;4911014;29;20037;-78
2022/11/26 00:59:21;;;;;;;28.50;13.73;;;;;;;0.18;100.00;98125.97;4883867;29;20028;-80
2022/11/26 01:01:47;;;;;;;32.55;14.30;;;;;;;0.11;100.00;98120.81;4895155;29;20032;-81
2022/11/26 01:04:13;;;;;;;27.50;12.60;;;;;;;0.11;100.00;98126.06;4917439;29;20032;-80
2022/11/26 01:06:41;;;;;;;24.70;12.32;;;;;;;0.10;100.00;98125.19;4892664;29;20102;-81
2022/11/26 01:09:15;;;;;;;34.97;13.85;;;;;;;0.03;100.00;98123.53;4888417;29;20035;-80
2022/11/26 01:11:40;;;;;;;32.20;11.98;;;;;;;0.03;100.00;98122.66;4910822;29;20114;-81
2022/11/26 01:14:18;;;;;;;35.72;14.43;;;;;;;0.00;100.00;98126.19;4892749;29;20558;-80
2022/11/26 01:16:45;;;;;;;27.10;12.57;;;;;;;0.05;100.00;98139.28;4893264;29;20032;-79
2022/11/26 01:19:12;;;;;;;50.83;20.80;;;;;;;0.02;100.00;98142.81;4919583;29;20058;-80
2022/11/26 01:21:38;;;;;;;47.10;18.90;;;;;;;-0.01;100.00;98137.59;4894717;29;20040;-80
2022/11/26 01:24:04;;;;;;;36.70;15.85;;;;;;;0.05;100.00;98161.19;4908202;29;20036;-81
2022/11/26 01:26:40;;;;;;;44.63;18.35;;;;;;;0.00;100.00;98150.72;4892380;29;20058;-81
2022/11/26 01:29:05;;;;;;;36.60;15.38;;;;;;;0.00;100.00;98150.72;4899235;29;20480;-81
2022/11/26 01:31:31;;;;;;;48.38;20.63;;;;;;;-0.10;100.00;98150.84;4890308;29;20038;-80
2022/11/26 01:33:57;;;;;;;74.63;27.70;;;;;;;-0.05;100.00;98154.28;4902700;29;20058;-80
2022/11/26 01:36:29;;;;;;;77.85;29.88;;;;;;;-0.01;100.00;98163.88;4888761;29;20076;-80
2022/11/26 01:39:15;;;;;;;61.67;23.92;;;;;;;0.04;100.00;98167.31;4908484;29;20070;-80
2022/11/26 01:41:47;;;;;;;47.25;19.80;;;;;;;0.03;100.00;98172.63;4916198;29;20108;-80
2022/11/26 01:44:33;;;;;;;35.33;16.10;;;;;;;-0.04;100.00;98169.19;4916126;29;20032;-80
2022/11/26 01:47:00;;;;;;;42.90;14.05;;;;;;;0.01;100.00;98183.13;4898951;29;20059;-80
2022/11/26 01:49:33;;;;;;;36.42;15.48;;;;;;;-0.04;100.00;98169.19;4899471;29;20092;-80
2022/11/26 01:52:11;;;;;;;37.70;15.32;;;;;;;0.02;100.00;98177.00;4891681;29;20024;-80
2022/11/26 01:54:39;;;;;;;28.10;11.85;;;;;;;-0.11;100.00;98157.84;4883815;29;20471;-80
2022/11/26 01:57:18;;;;;;;18.65;9.10;;;;;;;-0.18;100.00;98157.91;4894001;29;20447;-81
2022/11/26 01:59:50;;;;;;;18.27;8.95;;;;;;;-0.29;100.00;98142.25;4893515;29;20075;-79
2022/11/26 02:02:16;;;;;;;22.73;9.48;;;;;;;-0.22;100.00;98156.22;4880870;29;20565;-80
2022/11/26 02:05:16;;;;;;;24.95;10.60;;;;;;;-0.21;100.00;98168.44;4902254;29;20146;-79
2022/11/26 02:07:43;;;;;;;20.63;8.98;;;;;;;-0.29;100.00;98167.66;4885612;29;20134;-80
2022/11/26 02:10:09;;;;;;;20.42;9.05;;;;;;;-0.27;100.00;98171.13;4905929;29;20028;-80
2022/11/26 02:12:35;;;;;;;19.30;8.98;;;;;;;-0.29;100.00;98167.66;4883561;29;20099;-80
2022/11/26 02:15:00;;;;;;;19.35;9.20;;;;;;;-0.29;100.00;98167.66;4884585;29;20024;-80
2022/11/26 02:17:53;;;;;;;21.20;10.25;;;;;;;-0.32;100.00;98178.22;4903560;29;20035;-79
2022/11/26 02:20:27;;;;;;;19.73;9.60;;;;;;;-0.28;100.00;98193.06;4930075;29;20123;-80
2022/11/26 02:22:53;;;;;;;20.65;9.88;;;;;;;-0.27;100.00;98194.78;4900640;29;20031;-79
2022/11/26 02:25:46;;;;;;;36.05;14.63;;;;;;;-0.28;100.00;98200.97;4905692;29;20028;-81
2022/11/26 02:28:36;;;;;;;24.13;10.65;;;;;;;-0.27;100.00;98203.56;4884482;29;20032;-80
2022/11/26 02:31:08;;;;;;;23.90;11.20;;;;;;;-0.25;100.00;98201.81;4898575;29;20035;-80
2022/11/26 02:33:48;;;;;;;31.10;11.63;;;;;;;-0.19;100.00;98200.88;4898868;29;20104;-80
2022/11/26 02:36:36;;;;;;;30.02;13.38;;;;;;;-0.26;100.00;98201.81;4887153;29;20028;-80
2022/11/26 02:39:17;;;;;;;34.97;14.10;;;;;;;-0.25;100.00;98200.94;4921790;29;20048;-81
2022/11/26 02:41:45;;;;;;;26.80;11.73;;;;;;;-0.28;100.00;98193.94;4917725;29;20098;-81
2022/11/26 02:44:11;;;;;;;23.33;11.77;;;;;;;-0.30;100.00;98190.44;4908486;29;20412;-81
2022/11/26 02:46:38;;;;;;;29.38;12.40;;;;;;;-0.25;100.00;98191.28;4895603;29;20081;-81
2022/11/26 02:49:04;;;;;;;28.02;11.77;;;;;;;-0.32;100.00;98183.47;4913855;29;20040;-80
2022/11/26 02:51:29;;;;;;;25.83;11.63;;;;;;;-0.32;100.00;98186.09;4895904;29;20028;-80
2022/11/26 02:53:55;;;;;;;34.63;13.05;;;;;;;-0.24;100.00;98186.88;4902782;29;20036;-80
2022/11/26 02:56:26;;;;;;;30.27;13.90;;;;;;;-0.27;100.00;98182.53;4915105;29;20372;-81
2022/11/26 02:58:53;;;;;;;30.45;14.23;;;;;;;-0.26;100.00;98175.53;4883220;29;20028;-80
2022/11/26 03:01:28;;;;;;;33.15;13.63;;;;;;;-0.23;100.00;98180.75;4889548;29;20059;-80
2022/11/26 03:03:57;;;;;;;27.92;12.93;;;;;;;-0.23;100.00;98183.38;4897359;29;20114;-81
2022/11/26 03:06:24;;;;;;;30.17;13.07;;;;;;;-0.29;100.00;98165.03;4892851;29;20039;-80
2022/11/26 03:08:53;;;;;;;35.92;13.90;;;;;;;-0.22;100.00;98185.13;4902178;29;20428;-81
2022/11/26 03:11:19;;;;;;;38.38;12.13;;;;;;;-0.25;100.00;98174.66;4885296;29;20024;-80
2022/11/26 03:13:45;;;;;;;31.75;12.48;;;;;;;-0.28;100.00;98179.94;4917379;29;20166;-80
2022/11/26 03:16:11;;;;;;;35.33;14.25;;;;;;;-0.31;100.00;98180.84;4900492;29;20514;-80
2022/11/26 03:18:36;;;;;;;35.58;14.43;;;;;;;-0.32;100.00;98181.72;4907552;29;20103;-80
2022/11/26 03:21:02;;;;;;;43.15;16.15;;;;;;;-0.38;100.00;98184.41;4882694;29;20032;-80
2022/11/26 03:23:27;;;;;;;32.55;14.50;;;;;;;-0.37;100.00;98190.53;4911063;29;20031;-81
2022/11/26 03:25:53;;;;;;;36.35;14.75;;;;;;;-0.36;100.00;98197.50;4920836;29;20555;-80
2022/11/26 03:28:19;;;;;;;34.72;15.38;;;;;;;-0.39;100.00;98202.78;4913979;29;20063;-81
2022/11/26 03:30:44;;;;;;;41.22;17.40;;;;;;;-0.44;100.00;98199.34;4905023;29;20032;-79
2022/11/26 03:33:10;;;;;;;55.63;19.98;;;;;;;-0.46;100.00;98207.22;4919283;29;20401;-77
2022/11/26 03:35:35;;;;;;;49.53;20.17;;;;;;;-0.48;100.00;98202.88;4895891;29;20063;-76
2022/11/26 03:38:01;;;;;;;42.72;18.70;;;;;;;-0.49;100.00;98214.28;4898123;29;20553;-77
2022/11/26 03:40:26;;;;;;;44.17;18.33;;;;;;;-0.50;100.00;98212.53;4888014;29;20519;-77
2022/11/26 03:42:52;;;;;;;46.30;19.58;;;;;;;-0.43;100.00;98227.38;4904527;29;20488;-77
2022/11/26 03:45:17;;;;;;;36.42;17.85;;;;;;;-0.48;100.00;98229.13;4888288;29;20127;-77
2022/11/26 03:47:43;;;;;;;38.13;16.63;;;;;;;-0.53;100.00;98221.31;4885941;29;20032;-77
2022/11/26 03:50:09;;;;;;;50.92;19.95;;;;;;;-0.50;100.00;98241.41;4901236;29;20489;-77
2022/11/26 03:52:34;;;;;;;47.53;20.08;;;;;;;-0.52;100.00;98246.66;4886726;29;20036;-76
2022/11/26 03:55:00;;;;;;;53.28;20.63;;;;;;;-0.49;100.00;98251.91;4893520;29;20057;-77
2022/11/26 03:57:26;;;;;;;48.08;17.80;;;;;;;-0.53;100.00;98252.81;4917010;29;20034;-75
2022/11/26 03:59:51;;;;;;;41.22;18.27;;;;;;;-0.52;100.00;98264.22;4898907;29;20044;-76
2022/11/26 04:02:17;;;;;;;41.20;18.15;;;;;;;-0.53;100.00;98263.34;4905282;29;20035;-75
2022/11/26 04:04:42;;;;;;;32.67;14.73;;;;;;;-0.55;100.00;98263.34;4893663;29;20068;-77
2022/11/26 04:07:08;;;;;;;37.20;16.27;;;;;;;-0.60;100.00;98254.63;4885214;29;20036;-77
2022/11/26 04:09:34;;;;;;;42.78;18.05;;;;;;;-0.68;100.00;98248.53;4895099;29;20202;-76
2022/11/26 04:11:59;;;;;;;37.15;16.67;;;;;;;-0.59;100.00;98268.63;4890896;29;20028;-76
2022/11/26 04:14:25;;;;;;;45.15;17.42;;;;;;;-0.61;100.00;98275.63;4916405;29;20059;-77
2022/11/26 04:16:50;;;;;;;46.20;20.38;;;;;;;-0.71;100.00;98269.56;4913072;29;20051;-76
2022/11/26 04:19:16;;;;;;;45.40;19.35;;;;;;;-0.71;100.00;98266.09;4890007;29;20043;-76
2022/11/26 04:21:41;;;;;;;53.83;19.30;;;;;;;-0.85;100.00;98254.78;4904110;29;20150;-77
2022/11/26 04:24:07;;;;;;;72.40;24.23;;;;;;;-0.70;100.00;98284.44;4896513;29;20106;-76
2022/11/26 04:26:33;;;;;;;41.30;17.75;;;;;;;-0.77;100.00;98285.34;4900664;29;20028;-77
2022/11/26 04:28:58;;;;;;;44.33;15.70;;;;;;;-0.83;100.00;98279.28;4891127;29;20024;-77
2022/11/26 04:31:24;;;;;;;35.22;14.70;;;;;;;-0.87;100.00;98286.31;4911772;29;20036;-76
2022/11/26 04:33:49;;;;;;;33.35;15.60;;;;;;;-0.84;100.00;98282.78;4900198;29;20055;-76
2022/11/26 04:36:15;;;;;;;38.58;16.65;;;;;;;-0.84;100.00;98285.41;4892716;29;20035;-73
2022/11/26 04:38:40;;;;;;;41.38;17.10;;;;;;;-0.92;100.00;98288.06;4887179;29;20464;-78
2022/11/26 04:41:06;;;;;;;33.92;15.30;;;;;;;-0.97;100.00;98287.22;4903831;29;20031;-77
2022/11/26 04:43:31;;;;;;;41.13;16.27;;;;;;;-1.02;100.00;98294.25;4902423;29;20038;-77
2022/11/26 04:45:57;;;;;;;47.05;19.65;;;;;;;-1.03;100.00;98303.00;4911951;29;20103;-77
2022/11/26 04:48:22;;;;;;;32.38;14.70;;;;;;;-1.06;100.00;98308.25;4895606;29;20035;-76
2022/11/26 04:50:48;;;;;;;37.42;17.05;;;;;;;-1.13;100.00;98294.28;4917729;29;20398;-76
2022/11/26 04:53:15;;;;;;;36.83;14.48;;;;;;;-1.06;100.00;98318.75;4889678;29;20091;-77
2022/11/26 04:55:41;;;;;;;28.55;13.20;;;;;;;-1.12;100.00;98317.03;4914301;29;20051;-77
2022/11/26 04:58:06;;;;;;;30.85;14.75;;;;;;;-1.11;100.00;98312.66;4884315;29;20036;-76
2022/11/26 05:00:33;;;;;;;28.63;13.38;;;;;;;-0.99;100.00;98338.00;4893263;29;20583;-77
2022/11/26 05:02:59;;;;;;;24.80;12.20;;;;;;;-1.04;100.00;98342.34;4908129;29;20084;-77
2022/11/26 05:05:24;;;;;;;26.98;12.57;;;;;;;-0.97;100.00;98347.59;4900243;29;20036;-77
2022/11/26 05:07:50;;;;;;;33.22;14.23;;;;;;;-1.06;100.00;98339.75;4916402;29;20078;-76
2022/11/26 05:10:15;;;;;;;31.80;14.00;;;;;;;-1.00;100.00;98347.59;4885718;29;20032;-77
2022/11/26 05:12:41;;;;;;;49.70;19.58;;;;;;;-1.01;100.00;98348.47;4899687;29;20031;-78
2022/11/26 05:15:07;;;;;;;85.30;30.17;;;;;;;-0.91;100.00;98354.56;4896575;29;20107;-78
2022/11/26 05:17:33;;;;;;;80.90;25.17;;;;;;;-0.88;100.00;98357.19;4901384;29;20118;-77
2022/11/26 05:19:58;;;;;;;79.90;24.23;;;;;;;-0.89;100.00;98358.09;4895216;29;20476;-77
2022/11/26 05:22:24;;;;;;;68.28;25.75;;;;;;;-0.83;100.00;98364.16;4895319;29;20028;-78
2022/11/26 05:24:49;;;;;;;82.40;31.10;;;;;;;-0.79;100.00;98360.66;4886385;29;20030;-76
2022/11/26 05:27:15;;;;;;;78.30;31.77;;;;;;;-0.71;100.00;98379.00;4884005;29;20115;-77
2022/11/26 05:29:40;;;;;;;88.75;32.55;;;;;;;-0.72;100.00;98377.25;4892564;29;20502;-77
2022/11/26 05:32:06;;;;;;;72.85;26.35;;;;;;;-0.77;100.00;98364.13;4902800;29;20031;-77
2022/11/26 05:34:32;;;;;;;94.63;36.97;;;;;;;-0.74;100.00;98372.00;4888430;29;20020;-77
2022/11/26 05:36:57;;;;;;;78.68;29.17;;;;;;;-0.71;100.00;98371.13;4883778;29;20492;-76
2022/11/26 05:39:23;;;;;;;79.72;28.67;;;;;;;-0.66;100.00;98375.47;4884991;29;20028;-76
2022/11/26 05:41:49;;;;;;;66.45;24.60;;;;;;;-0.68;100.00;98366.72;4885365;29;20582;-77
2022/11/26 05:44:14;;;;;;;55.75;22.45;;;;;;;-0.62;100.00;98369.34;4915167;29;20035;-76
2022/11/26 05:46:41;;;;;;;48.55;20.77;;;;;;;-0.54;100.00;98371.91;4917418;29;20046;-76
2022/11/26 05:49:07;;;;;;;69.28;20.85;;;;;;;-0.55;100.00;98376.28;4914730;29;20097;-76
2022/11/26 05:51:33;;;;;;;58.75;25.42;;;;;;;-0.53;100.00;98370.16;4900749;29;20554;-77
2022/11/26 05:53:58;;;;;;;60.58;26.67;;;;;;;-0.48;100.00;98365.75;4912149;29;20099;-78
2022/11/26 05:56:24;;;;;;;74.72;28.02;;;;;;;-0.43;100.00;98369.25;4886292;29;20216;-76
2022/11/26 05:58:49;;;;;;;84.78;35.22;;;;;;;-0.38;100.00;98356.94;4911825;29;20043;-75
2022/11/26 06:01:15;;;;;;;85.82;35.90;;;;;;;-0.28;100.00;98358.66;4887784;29;20051;-76
2022/11/26 06:03:41;;;;;;;79.03;32.50;;;;;;;-0.17;100.00;98356.81;4886944;29;20057;-77
2022/11/26 06:06:07;;;;;;;147.02;50.95;;;;;;;-0.12;100.00;98357.63;4899873;29;20204;-76
2022/11/26 06:08:33;;;;;;;157.07;55.55;;;;;;;-0.03;100.00;98354.94;4899543;29;20071;-77
2022/11/26 06:10:58;;;;;;;158.32;52.22;;;;;;;0.02;100.00;98355.78;4897685;29;20035;-77
2022/11/26 06:13:24;;;;;;;163.15;59.63;;;;;;;0.15;100.00;98362.72;4884882;29;20032;-77
2022/11/26 06:15:50;;;;;;;144.07;56.20;;;;;;;0.30;100.00;98352.06;4895308;29;20048;-77
2022/11/26 06:18:16;;;;;;;162.77;59.25;;;;;;;0.19;100.00;98319.69;4890464;29;20023;-78
2022/11/26 06:20:41;;;;;;;91.20;36.33;;;;;;;0.53;100.00;98349.22;4901084;29;20183;-78
2022/11/26 06:23:07;;;;;;;332.80;191.45;;;;;;;0.73;100.00;98351.66;4895110;29;20035;-78
2022/11/26 06:25:33;;;;;;;125.05;53.17;;;;;;;1.36;100.00;98384.28;4894333;29;20036;-79
2022/11/26 06:27:58;;;;;;;64.97;28.90;;;;;;;2.16;100.00;98396.38;4891116;29;20024;-78
2022/11/26 06:30:24;;;;;;;67.72;30.15;;;;;;;2.94;100.00;98362.47;4895867;29;20031;-77
2022/11/26 06:32:49;;;;;;;72.45;28.83;;;;;;;3.63;100.00;98360.19;4894284;29;20094;-78
2022/11/26 06:35:15;;;;;;;68.90;27.55;;;;;;;4.56;100.00;98356.22;4889261;29;20068;-78
2022/11/26 06:37:59;;;;;;;56.38;25.33;;;;;;;5.82;94.50;98350.06;4865167;29;20032;-80
2022/11/26 06:40:24;;;;;;;56.35;25.02;;;;;;;6.47;84.17;98303.72;4917672;29;20028;-77
2022/11/26 06:42:51;;;;;;;54.20;23.98;;;;;;;6.75;80.03;98285.03;4917763;29;20063;-76
2022/11/26 06:45:18;;;;;;;54.40;23.70;;;;;;;7.56;76.32;98280.28;4901610;29;20027;-76
2022/11/26 06:47:46;;;;;;;58.22;26.67;;;;;;;8.48;71.05;98278.38;4896802;29;20028;-76
2022/11/26 06:50:12;;;;;;;54.78;28.23;;;;;;;9.11;66.71;98262.22;4897979;29;20123;-76
2022/11/26 06:52:37;;;;;;;71.03;34.33;;;;;;;9.95;61.92;98237.81;4899600;29;20456;-77
2022/11/26 06:55:04;;;;;;;71.63;31.77;;;;;;;10.17;61.09;98219.84;4888183;29;20034;-77
2022/11/26 06:57:29;;;;;;;62.60;29.08;;;;;;;10.81;59.89;98221.91;4933609;29;20036;-78
2022/11/26 06:59:55;;;;;;;70.93;31.77;;;;;;;10.49;58.45;98186.09;4908290;29;20503;-76
2022/11/26 07:02:20;;;;;;;79.90;37.95;;;;;;;10.10;59.92;98178.28;4886361;29;20543;-77
2022/11/26 07:04:46;;;;;;;64.82;32.28;;;;;;;9.96;60.04;98172.75;4882902;29;20040;-75
2022/11/26 07:07:11;;;;;;;64.35;30.83;;;;;;;9.90;59.67;98167.72;4894988;29;20031;-74
2022/11/26 07:09:38;;;;;;;87.57;44.05;;;;;;;10.22;58.96;98172.34;4909183;29;20031;-78
2022/11/26 07:12:04;;;;;;;76.30;36.53;;;;;;;10.89;57.26;98192.91;4891889;29;20031;-77
2022/11/26 07:14:30;;;;;;;65.55;32.42;;;;;;;11.18;56.61;98177.97;4893192;29;20484;-75
2022/11/26 07:16:55;;;;;;;61.92;27.67;;;;;;;11.43;55.64;98176.56;4903170;29;20424;-75
2022/11/26 07:19:37;;;;;;;36.20;19.30;;;;;;;12.02;54.97;98188.44;4916295;29;20035;-77
2022/11/26 07:22:02;;;;;;;41.47;19.97;;;;;;;12.16;53.41;98169.72;4893503;29;20032;-74
2022/11/26 07:24:28;;;;;;;37.15;19.60;;;;;;;12.37;53.01;98172.97;4910463;29;20296;-77
2022/11/26 07:26:55;;;;;;;42.53;22.77;;;;;;;12.33;52.63;98142.78;4897769;29;20046;-80
2022/11/26 07:29:20;;;;;;;41.58;20.30;;;;;;;12.92;52.60;98171.38;4896163;29;20031;-79
2022/11/26 07:31:46;;;;;;;57.65;29.10;;;;;;;13.08;50.87;98144.47;4913105;29;20057;-80
2022/11/26 07:34:22;;;;;;;53.35;25.77;;;;;;;13.26;51.62;98148.69;4893933;29;20087;-79
2022/11/26 07:36:57;;;;;;;49.40;25.70;;;;;;;13.46;50.00;98124.09;4894920;29;20036;-80
2022/11/26 07:39:22;;;;;;;46.08;23.98;;;;;;;13.21;50.54;98109.63;4891585;29;20090;-78
2022/11/26 07:41:48;;;;;;;36.72;18.45;;;;;;;13.23;49.75;98091.59;4882672;29;20036;-79
2022/11/26 07:44:13;;;;;;;36.33;19.42;;;;;;;13.89;48.93;98114.09;4917224;29;20053;-78
2022/11/26 07:46:39;;;;;;;38.13;18.55;;;;;;;14.12;48.52;98104.47;4905873;29;20097;-81
2022/11/26 07:49:05;;;;;;;36.30;20.13;;;;;;;14.06;48.24;98099.50;4898691;29;20036;-80
2022/11/26 07:51:32;;;;;;;35.05;19.45;;;;;;;13.96;48.22;98084.97;4889515;29;20515;-80
2022/11/26 07:53:59;;;;;;;39.70;19.33;;;;;;;13.51;49.26;98081.66;4909279;29;20043;-79
2022/11/26 07:56:25;;;;;;;35.17;19.17;;;;;;;13.83;48.54;98094.81;4902479;29;20735;-79
2022/11/26 07:58:51;;;;;;;40.67;19.98;;;;;;;13.75;48.60;98083.72;4905592;29;20035;-80
2022/11/26 08:01:19;;;;;;;28.23;16.40;;;;;;;13.88;48.09;98081.91;4897773;29;20063;-78
2022/11/26 08:03:47;;;;;;;34.10;17.92;;;;;;;14.22;47.07;98092.13;4897635;29;20077;-77
2022/11/26 08:06:20;;;;;;;38.38;19.70;;;;;;;15.16;46.36;98128.69;4906119;29;20029;-78
2022/11/26 08:08:46;;;;;;;51.75;22.48;;;;;;;15.49;44.97;98115.50;4889126;29;20043;-78
2022/11/26 08:11:15;;;;;;;45.60;25.00;;;;;;;14.43;45.95;98079.06;4909272;29;20086;-80
2022/11/26 08:13:41;;;;;;;53.10;28.42;;;;;;;14.60;46.42;98090.41;4907489;29;20079;-80
2022/11/26 08:16:07;;;;;;;80.10;35.33;;;;;;;14.56;46.42;98099.66;4912331;29;20110;-80
2022/11/26 08:18:33;;;;;;;87.70;44.63;;;;;;;14.45;47.04;98088.78;4883575;29;20519;-79
2022/11/26 08:20:59;;;;;;;83.18;42.28;;;;;;;13.65;48.27;98074.53;4882361;29;20119;-80
2022/11/26 08:23:25;;;;;;;80.03;42.65;;;;;;;14.02;48.35;98104.25;4902554;29;20088;-79
2022/11/26 08:25:51;;;;;;;84.30;41.25;;;;;;;13.45;49.18;98083.88;4895682;29;20040;-81
2022/11/26 08:28:17;;;;;;;78.50;39.80;;;;;;;14.11;48.22;98119.78;4878586;29;20040;-80
2022/11/26 08:30:43;;;;;;;64.93;34.70;;;;;;;14.81;47.03;98130.28;4898124;29;20095;-79
2022/11/26 08:33:09;;;;;;;65.28;34.22;;;;;;;15.75;44.53;98140.53;4900847;29;20042;-80
2022/11/26 08:35:35;;;;;;;57.40;30.35;;;;;;;16.52;42.51;98123.06;4882259;29;20032;-79
2022/11/26 08:38:01;;;;;;;42.63;24.77;;;;;;;17.03;41.54;98128.97;4889450;29;20465;-79
2022/11/26 08:40:26;;;;;;;39.85;20.60;;;;;;;17.31;40.54;98123.09;4896860;29;20031;-80
2022/11/26 08:42:52;;;;;;;35.83;16.70;;;;;;;17.77;39.06;98106.75;4883234;29;20115;-79
2022/11/26 08:45:17;;;;;;;52.45;28.40;;;;;;;17.79;38.75;98097.50;4899825;29;20068;-80
2022/11/26 08:47:43;;;;;;;50.53;28.48;;;;;;;17.62;39.32;98095.34;4887046;29;20088;-78
2022/11/26 08:50:09;;;;;;;59.30;31.65;;;;;;;17.62;39.40;98095.34;4889845;29;20039;-79
2022/11/26 08:52:34;;;;;;;59.15;32.80;;;;;;;17.52;39.38;98080.81;4897016;29;20495;-81
2022/11/26 08:55:00;;;;;;;60.03;30.55;;;;;;;17.51;39.04;98070.94;4895274;29;20023;-79
2022/11/26 08:57:26;;;;;;;50.40;27.45;;;;;;;17.02;39.89;98067.78;4897222;29;20489;-80
2022/11/26 08:59:53;;;;;;;47.03;24.95;;;;;;;17.02;39.55;98070.47;4883455;29;20563;-79
2022/11/26 09:02:19;;;;;;;33.72;19.77;;;;;;;17.14;39.30;98072.19;4888275;29;20027;-79
2022/11/26 09:04:45;;;;;;;31.13;18.50;;;;;;;17.06;39.41;98050.34;4911392;29;20110;-79
2022/11/26 09:07:11;;;;;;;39.20;21.85;;;;;;;17.42;39.71;98084.38;4899423;29;20472;-80
2022/11/26 09:09:37;;;;;;;42.72;24.25;;;;;;;18.18;38.76;98090.63;4886176;29;20035;-79
2022/11/26 09:12:17;;;;;;;40.50;24.40;;;;;;;18.74;37.87;98091.25;5085744;27;20384;-81
2022/11/26 09:14:42;;;;;;;43.38;23.95;;;;;;;18.44;37.75;98066.75;5073578;28;20032;-81
2022/11/26 09:17:10;;;;;;;39.08;22.80;;;;;;;18.50;37.82;98076.22;5076398;28;20509;-79
2022/11/26 09:19:36;;;;;;;38.13;21.92;;;;;;;18.45;37.21;98052.22;5075456;28;20101;-80
2022/11/26 09:22:02;;;;;;;41.80;22.67;;;;;;;19.45;36.14;98086.81;5067509;28;20028;-80
2022/11/26 09:24:27;;;;;;;39.20;21.98;;;;;;;18.64;36.54;98038.00;5081499;28;20031;-80
2022/11/26 09:26:53;;;;;;;38.92;21.50;;;;;;;17.98;37.26;98021.03;5085002;28;20020;-80
2022/11/26 09:29:21;;;;;;;48.17;23.23;;;;;;;17.26;39.00;98044.16;5073665;28;20035;-81
2022/11/26 09:31:47;;;;;;;34.30;20.23;;;;;;;17.99;37.79;98051.69;5082636;28;20031;-80
2022/11/26 09:34:13;;;;;;;30.20;18.42;;;;;;;17.76;38.39;98032.81;5087770;28;20522;-80
2022/11/26 09:36:39;;;;;;;33.80;19.27;;;;;;;17.77;38.44;98029.13;5081008;28;20055;-81
2022/11/26 09:39:05;;;;;;;35.40;18.90;;;;;;;17.54;38.40;98023.84;5082941;28;20132;-81
2022/11/26 09:41:36;;;;;;;29.50;18.50;;;;;;;17.99;37.80;98043.56;5070864;28;20024;-80
2022/11/26 09:44:17;;;;;;;35.80;16.30;;;;;;;18.59;36.70;98042.94;5101999;28;20146;-81
2022/11/26 09:46:52;;;;;;;31.95;15.57;;;;;;;18.26;37.36;98033.09;5078933;28;20036;-81
2022/11/26 09:49:17;;;;;;;25.83;16.17;;;;;;;19.12;36.04;98049.09;5092868;28;20039;-81
2022/11/26 09:51:45;;;;;;;28.40;16.40;;;;;;;19.58;35.05;98025.00;5081751;28;20019;-79
2022/11/26 09:54:17;;;;;;;27.52;14.82;;;;;;;19.67;34.54;98036.88;5079079;28;20055;-80
2022/11/26 09:56:42;;;;;;;29.60;16.47;;;;;;;19.57;34.31;98026.00;5098739;28;20038;-81
2022/11/26 09:59:11;;;;;;;26.38;15.23;;;;;;;18.53;35.72;98000.97;5073398;28;20495;-81
2022/11/26 10:01:37;;;;;;;23.98;11.63;;;;;;;18.51;35.87;98007.50;5072911;28;20506;-81
2022/11/26 10:04:06;;;;;;;22.27;13.55;;;;;;;18.89;35.39;98024.84;5069550;28;20032;-80
2022/11/26 10:06:59;;;;;;;18.63;12.88;;;;;;;19.02;35.69;98023.75;5079405;28;20116;-79
2022/11/26 10:10:09;;;;;;;23.33;12.95;;;;;;;18.83;35.46;98006.41;5087222;28;20062;-81
2022/11/26 10:12:50;;;;;;;24.38;13.20;;;;;;;19.33;34.82;98029.03;5086013;28;20039;-80
2022/11/26 10:15:36;;;;;;;21.73;12.95;;;;;;;19.59;34.63;98020.44;5075115;28;20305;-80
2022/11/26 10:18:17;;;;;;;25.10;13.73;;;;;;;19.84;34.06;98011.78;5097760;28;20034;-80
2022/11/26 10:20:53;;;;;;;22.35;13.15;;;;;;;19.92;33.66;98001.06;5102593;28;20039;-80
2022/11/26 10:23:36;;;;;;;26.60;14.82;;;;;;;20.53;33.28;98001.63;5080319;28;20052;-81
2022/11/26 10:26:09;;;;;;;22.38;13.32;;;;;;;20.23;33.07;97990.91;5056092;28;20115;-81
2022/11/26 10:28:47;;;;;;;30.95;13.48;;;;;;;20.29;33.35;97990.38;5058302;28;20039;-81
2022/11/26 10:31:19;;;;;;;20.55;12.07;;;;;;;20.36;33.19;97983.34;5059212;28;20039;-79
2022/11/26 10:34:00;;;;;;;19.67;11.05;;;;;;;20.10;34.12;97984.91;5069867;28;20119;-80
2022/11/26 10:36:38;;;;;;;17.00;10.25;;;;;;;19.56;33.79;97970.03;5063937;28;20131;-80
2022/11/26 10:39:06;;;;;;;23.17;11.73;;;;;;;19.90;33.65;97974.03;5059214;28;20032;-79
2022/11/26 10:41:36;;;;;;;18.98;11.98;;;;;;;20.38;33.11;97989.50;5083172;28;20032;-79
2022/11/26 10:44:40;;;;;;;21.20;11.40;;;;;;;20.17;32.96;97969.75;5059427;28;20031;-79
2022/11/26 10:47:26;;;;;;;25.98;13.75;;;;;;;21.03;32.56;97999.50;5044927;28;20051;-81
2022/11/26 10:50:13;;;;;;;22.23;13.57;;;;;;;19.98;33.66;97957.91;5067945;28;20035;-81
2022/11/26 10:52:39;;;;;;;21.17;12.75;;;;;;;20.74;32.45;97977.81;5077768;28;20116;-80
2022/11/26 10:55:23;;;;;;;23.52;13.73;;;;;;;21.41;32.00;97993.88;5062466;28;20480;-80
2022/11/26 10:57:52;;;;;;;22.70;13.75;;;;;;;21.99;31.29;97997.16;5092990;28;20050;-78
2022/11/26 11:00:44;;;;;;;16.98;10.13;;;;;;;22.04;30.97;97994.81;5072863;28;20032;-80
2022/11/26 11:03:25;;;;;;;18.85;10.07;;;;;;;22.07;30.64;97989.06;5049396;28;20041;-81
2022/11/26 11:06:12;;;;;;;13.60;7.07;;;;;;;19.46;32.40;97915.72;5070435;28;20046;-79
2022/11/26 11:08:37;;;;;;;5.38;3.15;;;;;;;18.54;33.10;97931.38;5074821;28;20046;-81
2022/11/26 11:11:03;;;;;;;7.90;5.10;;;;;;;20.22;32.27;97992.75;5058404;28;20040;-80
2022/11/26 11:13:40;;;;;;;12.68;5.70;;;;;;;21.43;30.83;98010.09;5071442;28;20032;-80
2022/11/26 11:16:07;;;;;;;8.05;5.75;;;;;;;21.75;30.17;97994.13;5054486;28;20055;-80
2022/11/26 11:18:34;;;;;;;7.18;4.25;;;;;;;22.10;29.38;97987.88;5071135;28;20063;-80
2022/11/26 11:21:03;;;;;;;6.15;3.47;;;;;;;21.28;29.42;97947.16;5061746;28;20088;-79
2022/11/26 11:23:35;;;;;;;5.97;3.58;;;;;;;21.81;29.10;97966.25;5091381;28;20050;-80